createdAt,value
2019-04-23T00:05:02.799Z,96.20
2019-04-23T00:15:35.921Z,96.50
2019-04-23T00:17:48.837Z,96.70
2019-04-23T00:20:18.412Z,96.40
2019-04-23T00:23:11.041Z,96.70
2019-04-23T00:31:04.396Z,96.30
2019-04-23T00:33:31.355Z,96.40
2019-04-23T00:36:02.662Z,96.80
2019-04-23T00:41:05.617Z,96.80
2019-04-23T00:43:54.539Z,96.80
2019-04-23T00:46:06.298Z,96.70
2019-04-23T00:48:45.566Z,96.90
2019-04-23T00:51:06.241Z,96.70
2019-04-23T00:53:36.977Z,97.30
2019-04-23T01:01:11.141Z,97.60
2019-04-23T01:03:48.294Z,97.60
2019-04-23T01:06:21.284Z,97.70
2019-04-23T01:08:45.261Z,97.60
2019-04-23T01:11:21.193Z,97.70
2019-04-23T01:13:49.482Z,97.60
2019-04-23T01:16:19.573Z,98.00
2019-04-23T01:18:54.471Z,98.20
2019-04-23T01:21:13.877Z,98.40
2019-04-23T01:23:58.872Z,98.40
2019-04-23T01:27:00.234Z,98.50
2019-04-23T01:29:19.956Z,98.40
2019-04-23T01:31:52.054Z,98.70
2019-04-23T01:34:26.024Z,99.10
2019-04-23T01:36:56.382Z,98.60
2019-04-23T01:39:24.439Z,99.00
2019-04-23T01:42:08.886Z,99.10
2019-04-23T01:44:36.794Z,99.20
2019-04-23T01:47:05.921Z,99.10
2019-04-23T01:49:39.183Z,99.20
2019-04-23T01:52:04.783Z,99.90
2019-04-23T01:54:35.074Z,99.90
2019-04-23T01:57:04.018Z,99.90
2019-04-23T01:59:38.596Z,99.90
2019-04-23T02:02:07.724Z,99.90
2019-04-23T02:04:34.852Z,99.90
2019-04-23T02:07:12.779Z,99.90
2019-04-23T02:09:45.336Z,99.90
2019-04-23T02:12:11.583Z,99.90
2019-04-23T02:14:41.746Z,99.90
2019-04-23T02:17:17.149Z,99.90
2019-04-23T02:19:46.185Z,99.90
2019-04-23T02:23:06.454Z,99.90
2019-04-23T02:25:41.201Z,99.90
2019-04-23T02:28:06.076Z,99.90
2019-04-23T02:38:10.199Z,99.90
2019-04-23T02:40:48.798Z,99.90
2019-04-23T02:43:12.592Z,99.90
2019-04-23T02:45:54.564Z,99.90
2019-04-23T02:55:59.780Z,99.90
2019-04-23T02:58:39.007Z,99.90
2019-04-23T03:01:08.950Z,99.90
2019-04-23T03:06:04.893Z,99.90
2019-04-23T03:08:30.688Z,99.90
2019-04-23T03:13:48.419Z,99.90
2019-04-23T03:16:29.479Z,99.90
2019-04-23T03:19:13.628Z,99.90
2019-04-23T03:24:59.848Z,99.90
2019-04-23T03:37:35.584Z,99.90
2019-04-23T03:40:03.926Z,99.90
2019-04-23T03:45:07.737Z,99.90
2019-04-23T03:50:22.023Z,99.90
2019-04-23T03:55:27.893Z,99.90
2019-04-23T04:00:12.489Z,99.90
2019-04-23T04:02:48.628Z,99.90
2019-04-23T04:05:19.488Z,99.90
2019-04-23T04:10:05.309Z,99.90
2019-04-23T04:12:39.306Z,99.90
2019-04-23T04:15:33.243Z,99.90
2019-04-23T04:17:48.632Z,99.90
2019-04-23T04:20:28.969Z,99.90
2019-04-23T04:25:27.030Z,99.90
2019-04-23T04:28:03.455Z,99.90
2019-04-23T04:40:29.442Z,99.90
2019-04-23T04:43:11.303Z,99.90
2019-04-23T04:48:14.169Z,99.90
2019-04-23T04:50:26.254Z,99.90
2019-04-23T04:57:58.268Z,99.90
2019-04-23T05:00:49.613Z,99.90
2019-04-23T05:08:15.573Z,99.90
2019-04-23T05:13:35.284Z,99.90
2019-04-23T05:15:44.911Z,99.90
2019-04-23T05:18:24.015Z,99.90
2019-04-23T05:20:58.513Z,99.90
2019-04-23T05:23:54.368Z,99.90
2019-04-23T05:28:55.513Z,99.90
2019-04-23T05:31:21.123Z,99.90
2019-04-23T05:33:52.187Z,99.90
2019-04-23T05:41:27.083Z,99.90
2019-04-23T05:43:52.557Z,99.90
2019-04-23T05:46:27.814Z,99.90
2019-04-23T05:49:02.756Z,99.90
2019-04-23T05:51:28.235Z,99.90
2019-04-23T05:53:58.253Z,99.90
2019-04-23T05:59:29.663Z,99.90
2019-04-23T06:04:39.019Z,99.90
2019-04-23T06:07:22.199Z,99.90
2019-04-23T06:09:41.442Z,99.90
2019-04-23T06:12:07.621Z,99.90
2019-04-23T06:14:47.359Z,99.90
2019-04-23T06:17:19.734Z,99.90
2019-04-23T06:19:42.424Z,99.90
2019-04-23T06:26:08.055Z,99.90
2019-04-23T06:28:29.838Z,99.90
2019-04-23T06:31:01.678Z,99.90
2019-04-23T06:33:32.289Z,99.90
2019-04-23T06:36:07.574Z,99.90
2019-04-23T06:38:55.018Z,99.90
2019-04-23T06:41:12.576Z,99.90
2019-04-23T06:43:50.676Z,99.90
2019-04-23T06:46:19.946Z,99.90
2019-04-23T06:48:47.279Z,99.90
2019-04-23T06:51:27.165Z,99.90
2019-04-23T06:53:55.038Z,99.90
2019-04-23T06:56:24.705Z,99.90
2019-04-23T07:02:39.165Z,99.90
2019-04-23T07:05:08.624Z,99.90
2019-04-23T07:10:05.986Z,99.90
2019-04-23T07:15:27.130Z,99.90
2019-04-23T07:17:39.612Z,99.90
2019-04-23T07:20:15.133Z,99.90
2019-04-23T07:22:45.153Z,99.90
2019-04-23T07:25:17.764Z,99.90
2019-04-23T07:27:47.633Z,99.90
2019-04-23T07:30:20.601Z,99.90
2019-04-23T07:32:52.519Z,99.90
2019-04-23T07:35:15.820Z,99.90
2019-04-23T07:40:57.599Z,99.90
2019-04-23T07:43:49.479Z,99.90
2019-04-23T07:46:42.837Z,99.90
2019-04-23T07:49:04.565Z,99.90
2019-04-23T07:51:39.335Z,99.90
2019-04-23T07:54:07.954Z,99.90
2019-04-23T07:56:36.264Z,99.90
2019-04-23T07:59:14.314Z,99.90
2019-04-23T08:01:39.177Z,99.40
2019-04-23T08:04:08.570Z,99.20
2019-04-23T08:06:45.972Z,99.40
2019-04-23T08:09:17.568Z,99.70
2019-04-23T08:12:05.021Z,99.90
2019-04-23T08:14:13.561Z,99.90
2019-04-23T08:16:42.431Z,99.90
2019-04-23T08:19:25.602Z,99.70
2019-04-23T08:22:04.722Z,98.00
2019-04-23T08:24:59.227Z,97.90
2019-04-23T08:27:29.714Z,97.90
2019-04-23T08:32:46.803Z,98.20
2019-04-23T08:35:04.343Z,98.20
2019-04-23T08:37:51.594Z,97.30
2019-04-23T08:40:02.240Z,96.80
2019-04-23T08:48:23.018Z,97.00
2019-04-23T09:05:04.329Z,95.40
2019-04-23T09:18:09.297Z,94.80
2019-04-23T09:20:30.551Z,94.70
2019-04-23T09:25:54.398Z,93.70
2019-04-23T09:28:36.552Z,94.20
2019-04-23T09:31:09.047Z,94.20
2019-04-23T09:36:49.156Z,94.20
2019-04-23T09:39:36.236Z,93.80
2019-04-23T09:42:14.771Z,93.70
2019-04-23T09:45:24.851Z,93.20
2019-04-23T09:47:56.885Z,93.20
2019-04-23T09:53:06.731Z,93.20
2019-04-23T09:55:35.465Z,93.10
2019-04-23T10:02:49.884Z,92.60
2019-04-23T10:05:13.976Z,92.90
2019-04-23T10:07:46.217Z,92.50
2019-04-23T10:10:05.383Z,92.40
2019-04-23T10:12:35.725Z,92.30
2019-04-23T10:15:13.820Z,92.10
2019-04-23T10:17:38.068Z,92.40
2019-04-23T10:20:08.695Z,92.30
2019-04-23T10:22:39.566Z,92.30
2019-04-23T10:25:10.884Z,91.80
2019-04-23T10:27:41.340Z,92.10
2019-04-23T10:30:12.337Z,92.20
2019-04-23T10:32:43.133Z,91.80
2019-04-23T10:35:22.141Z,91.80
2019-04-23T10:37:52.222Z,91.90
2019-04-23T10:40:19.399Z,91.70
2019-04-23T10:42:48.357Z,91.90
2019-04-23T10:45:48.884Z,91.60
2019-04-23T10:49:11.282Z,91.30
2019-04-23T10:54:24.576Z,91.20
2019-04-23T10:59:35.134Z,91.10
2019-04-23T11:02:15.724Z,90.90
2019-04-23T11:04:49.100Z,91.20
2019-04-23T11:09:50.265Z,90.70
2019-04-23T11:15:09.450Z,90.40
2019-04-23T11:17:43.192Z,90.30
2019-04-23T11:20:06.909Z,90.70
2019-04-23T11:22:42.058Z,90.50
2019-04-23T11:25:15.222Z,90.40
2019-04-23T11:27:40.584Z,90.20
2019-04-23T11:30:12.040Z,90.00
2019-04-23T11:37:50.716Z,90.30
2019-04-23T11:42:47.638Z,88.90
2019-04-23T11:45:28.218Z,89.10
2019-04-23T11:55:35.819Z,86.90
2019-04-23T11:58:04.908Z,87.90
2019-04-23T12:00:26.813Z,88.10
2019-04-23T12:02:57.925Z,88.10
2019-04-23T12:06:09.540Z,87.20
2019-04-23T12:08:43.078Z,86.60
2019-04-23T12:14:31.021Z,87.10
2019-04-23T12:19:52.912Z,86.10
2019-04-23T12:25:00.137Z,87.30
2019-04-23T12:27:08.160Z,87.00
2019-04-23T12:29:37.697Z,86.30
2019-04-23T12:32:48.768Z,86.20
2019-04-23T12:45:27.011Z,87.60
2019-04-23T12:50:50.019Z,88.10
2019-04-23T13:00:29.617Z,88.20
2019-04-23T13:05:28.904Z,87.90
2019-04-23T13:08:15.549Z,88.10
2019-04-23T13:10:42.310Z,88.40
2019-04-23T13:13:07.785Z,88.00
2019-04-23T13:15:29.335Z,88.10
2019-04-23T13:20:33.529Z,88.10
2019-04-23T13:23:08.599Z,88.50
2019-04-23T13:25:47.372Z,88.20
2019-04-23T13:33:30.120Z,87.80
2019-04-23T13:41:01.425Z,88.70
2019-04-23T13:43:40.127Z,88.30
2019-04-23T13:48:20.388Z,88.80
2019-04-23T13:51:06.766Z,89.00
2019-04-23T13:56:06.153Z,90.30
2019-04-23T14:01:07.376Z,90.60
2019-04-23T14:03:40.820Z,90.40
2019-04-23T14:06:22.707Z,90.80
2019-04-23T14:08:53.889Z,90.50
2019-04-23T14:11:23.295Z,90.60
2019-04-23T14:13:49.732Z,90.80
2019-04-23T14:16:29.792Z,90.60
2019-04-23T14:26:32.284Z,90.10
2019-04-23T14:31:36.849Z,90.10
2019-04-23T14:49:19.289Z,89.90
2019-04-23T14:51:49.767Z,90.10
2019-04-23T14:54:34.720Z,90.50
2019-04-23T14:56:58.992Z,90.70
2019-04-23T14:59:14.891Z,90.80
2019-04-23T15:01:54.988Z,90.80
2019-04-23T15:04:31.985Z,90.70
2019-04-23T15:09:33.971Z,91.00
2019-04-23T15:12:11.807Z,91.30
2019-04-23T15:17:09.463Z,91.40
2019-04-23T15:19:47.960Z,91.60
2019-04-23T15:22:15.675Z,91.40
2019-04-23T15:25:15.362Z,91.60
2019-04-23T15:28:01.952Z,91.60
2019-04-23T15:29:35.049Z,91.50
2019-04-23T15:32:18.625Z,91.50
2019-04-23T15:34:47.334Z,91.50
2019-04-23T15:37:32.900Z,91.50
2019-04-23T15:39:55.340Z,91.50
2019-04-23T15:44:55.354Z,91.50
2019-04-23T15:47:54.063Z,91.20
2019-04-23T15:52:51.522Z,91.40
2019-04-23T15:55:12.193Z,91.20
2019-04-23T16:00:22.428Z,90.80
2019-04-23T16:02:25.177Z,91.10
2019-04-23T16:04:55.937Z,91.20
2019-04-23T16:07:42.610Z,91.40
2019-04-23T16:12:58.280Z,91.40
2019-04-23T16:15:36.829Z,91.30
2019-04-23T16:18:26.725Z,91.30
2019-04-23T16:23:16.847Z,91.90
2019-04-23T16:25:54.271Z,92.00
2019-04-23T16:28:36.481Z,91.90
2019-04-23T16:31:05.990Z,91.70
2019-04-23T16:33:21.972Z,91.80
2019-04-23T16:36:12.622Z,91.90
2019-04-23T16:38:40.847Z,92.00
2019-04-23T16:41:09.919Z,91.90
2019-04-23T16:43:35.370Z,92.00
2019-04-23T16:46:11.492Z,92.20
2019-04-23T16:48:57.663Z,92.20
2019-04-23T16:53:50.081Z,92.50
2019-04-23T16:56:30.624Z,92.30
2019-04-23T16:58:54.046Z,92.40
2019-04-23T17:01:12.150Z,92.70
2019-04-23T17:04:01.201Z,92.60
2019-04-23T17:06:27.960Z,92.30
2019-04-23T17:14:02.664Z,91.90
2019-04-23T17:16:28.606Z,91.70
2019-04-23T17:19:07.434Z,91.80
2019-04-23T17:21:28.774Z,91.70
2019-04-23T17:24:07.992Z,91.60
2019-04-23T17:26:30.640Z,91.80
2019-04-23T17:29:08.379Z,92.00
2019-04-23T17:34:18.707Z,91.80
2019-04-23T17:36:45.838Z,91.80
2019-04-23T17:39:36.948Z,92.00
2019-04-23T17:45:06.129Z,92.30
2019-04-23T17:48:03.595Z,92.30
2019-04-23T17:52:59.179Z,92.20
2019-04-23T17:55:24.441Z,92.30
2019-04-23T17:58:01.130Z,92.40
2019-04-23T18:05:24.356Z,92.50
2019-04-23T18:08:05.262Z,92.90
2019-04-23T18:10:56.307Z,92.70
2019-04-23T18:13:07.207Z,92.60
2019-04-23T18:15:39.340Z,92.60
2019-04-23T18:18:11.767Z,93.00
2019-04-23T18:21:13.248Z,92.70
2019-04-23T18:23:37.948Z,92.90
2019-04-23T18:26:18.439Z,93.00
2019-04-23T18:28:51.858Z,93.10
2019-04-23T18:31:23.934Z,93.20
2019-04-23T18:36:25.444Z,93.30
2019-04-23T18:41:31.418Z,93.20
2019-04-23T18:44:16.179Z,93.30
2019-04-23T18:46:37.136Z,93.60
2019-04-23T18:48:59.639Z,93.70
2019-04-23T18:51:40.484Z,93.60
2019-04-23T18:54:08.488Z,93.90
2019-04-23T18:56:59.661Z,93.50
2019-04-23T18:59:11.024Z,93.60
2019-04-23T19:02:09.172Z,93.70
2019-04-23T19:04:54.784Z,93.30
2019-04-23T19:07:42.536Z,93.80
2019-04-23T19:13:07.714Z,93.30
2019-04-23T19:15:38.226Z,93.50
2019-04-23T19:18:13.699Z,93.20
2019-04-23T19:23:26.015Z,93.10
2019-04-23T19:25:51.718Z,93.00
2019-04-23T19:28:38.120Z,92.40
2019-04-23T19:31:03.265Z,92.20
2019-04-23T19:38:35.251Z,92.30
2019-04-23T19:41:08.901Z,92.40
2019-04-23T19:43:59.460Z,92.40
2019-04-23T19:46:35.004Z,92.30
2019-04-23T19:48:53.976Z,92.10
2019-04-23T19:56:16.925Z,91.80
2019-04-23T20:01:29.583Z,91.40
2019-04-23T20:03:57.583Z,91.00
2019-04-23T20:06:32.333Z,91.10
2019-04-23T20:09:12.659Z,90.80
2019-04-23T20:11:29.628Z,90.90
2019-04-23T20:16:31.379Z,90.90
2019-04-23T20:18:54.560Z,90.90
2019-04-23T20:21:31.944Z,90.80
2019-04-23T20:24:08.494Z,90.90
2019-04-23T20:26:23.423Z,90.90
2019-04-23T20:34:41.435Z,91.00
2019-04-23T20:36:57.895Z,91.10
2019-04-23T20:39:41.883Z,91.30
2019-04-23T20:52:10.338Z,91.60
2019-04-23T20:57:55.551Z,91.80
2019-04-23T21:00:23.770Z,91.80
2019-04-23T21:15:42.126Z,92.90
2019-04-23T21:18:18.981Z,92.50
2019-04-23T21:23:14.232Z,92.50
2019-04-23T21:25:43.827Z,93.00
2019-04-23T21:28:29.032Z,93.10
2019-04-23T21:36:20.519Z,92.90
2019-04-23T21:39:15.166Z,93.00
2019-04-23T21:41:52.486Z,93.30
2019-04-23T21:54:12.460Z,94.50
2019-04-23T21:56:47.210Z,94.30
2019-04-23T21:59:10.516Z,94.20
2019-04-23T22:02:12.727Z,94.40
2019-04-23T22:06:54.042Z,94.50
2019-04-23T22:09:27.170Z,94.60
2019-04-23T22:12:05.303Z,94.90
2019-04-23T22:14:33.308Z,94.60
2019-04-23T22:17:03.206Z,94.60
2019-04-23T22:19:26.865Z,94.60
2019-04-23T22:22:16.317Z,95.00
2019-04-23T22:24:31.612Z,95.10
2019-04-23T22:27:08.626Z,94.60
2019-04-23T22:32:02.406Z,94.60
2019-04-23T22:39:45.632Z,95.20
2019-04-23T22:42:34.907Z,94.80
2019-04-23T22:44:57.572Z,94.50
2019-04-23T22:47:15.558Z,94.50
2019-04-23T22:55:02.072Z,94.90
2019-04-23T22:57:56.730Z,95.00
2019-04-23T23:05:39.881Z,95.20
2019-04-23T23:13:03.808Z,95.40
2019-04-23T23:15:32.880Z,94.80
2019-04-23T23:20:30.245Z,95.20
2019-04-23T23:25:33.470Z,94.90
2019-04-23T23:28:12.174Z,95.30
2019-04-23T23:30:38.437Z,94.90
2019-04-23T23:33:11.183Z,95.10
2019-04-23T23:35:34.655Z,95.20
2019-04-23T23:38:19.427Z,95.30
2019-04-23T23:41:05.314Z,95.40
2019-04-23T23:43:21.220Z,95.30
2019-04-23T23:45:55.851Z,95.30
2019-04-23T23:48:12.777Z,95.30
2019-04-23T23:50:54.597Z,95.40
2019-04-23T23:53:26.529Z,95.30
2019-04-23T23:55:58.539Z,95.60
2019-04-23T23:58:23.658Z,95.10
